Apple Valley, Idaho
Current Conditions -  °F | °C
As of 10:53 PM on Wednesday 26 Nov 2014 (Local Time) from KONO Reporting Station
Clear Clear  
Wind Chill: 40°   Ceiling: Unl
Heat Index: 40°   Visibility: 10mi
Dew Point: 37°   Wind: 3mph
Humidity: 89%   Direction: 260°W
Pressure: 30.19"   Gusts: NA
Location:  43.8067°N, 116.922°W
Report Text: KONO 270553Z AUTO 26003KT 10SM CLR 04/03 A3019 RMK AO2 SLP237 T00440028 10100 20039 56006
Loading
Personal Weather Stations






























Interactive Weather Map New forecast layout! Learn more

10-Day Weather Forecast

Advertisements
Track Severe Weather on mobile